Terminal Aerodrome Forecast
Issued by NWS Louisville, KY

Home | Current Version | Previous Version | Text Only | Print | Product List | Glossary On
Versions: 1 2 3 4 5 6 7 8 9 10 11 12 13 14 15
869
FTUS43 KLMK 240524
TAFBWG
TAF
KBWG 240524Z 2406/2506 00000KT P6SM BKN250
     FM241000 00000KT 4SM BR BKN250
      TEMPO 2410/2413 1 1/2SM BR
     FM241300 24005KT P6SM SCT050 PROB30 2420/2424 -TSRA BKN045CB
     FM250000 00000KT P6SM FEW070=

USA.gov is the U.S. government's official web portal to all federal, state and local government web resources and services.